createdAt,value
2018-11-11T00:03:55.235Z,38
2018-11-11T00:13:58.703Z,39
2018-11-11T00:24:02.153Z,38
2018-11-11T00:34:05.616Z,38
2018-11-11T00:44:09.062Z,38
2018-11-11T00:54:12.536Z,38
2018-11-11T01:04:16.003Z,38
2018-11-11T01:14:19.477Z,38
2018-11-11T01:24:22.945Z,38
2018-11-11T01:34:26.407Z,37
2018-11-11T01:44:29.861Z,37
2018-11-11T01:54:33.319Z,37
2018-11-11T02:04:36.760Z,37
2018-11-11T02:14:40.214Z,37
2018-11-11T02:24:43.688Z,38
2018-11-11T02:34:47.144Z,38
2018-11-11T02:44:50.593Z,38
2018-11-11T02:54:54.036Z,37
2018-11-11T03:04:57.479Z,37
2018-11-11T03:15:00.913Z,37
2018-11-11T03:35:12.707Z,37
2018-11-11T03:45:16.191Z,38
2018-11-11T03:55:19.665Z,38
2018-11-11T04:05:23.118Z,38
2018-11-11T04:15:26.547Z,38
2018-11-11T04:25:30.007Z,39
2018-11-11T04:35:33.415Z,41
2018-11-11T04:45:36.852Z,38
2018-11-11T04:55:40.330Z,38
2018-11-11T05:05:43.772Z,38
2018-11-11T05:15:47.239Z,37
2018-11-11T05:25:50.680Z,38
2018-11-11T05:35:54.099Z,38
2018-11-11T05:45:57.531Z,37
2018-11-11T05:56:01.983Z,38
2018-11-11T06:06:05.442Z,38
2018-11-11T06:16:08.892Z,38
2018-11-11T06:26:12.360Z,38
2018-11-11T06:36:15.825Z,38
2018-11-11T06:46:19.259Z,39
2018-11-11T06:56:22.816Z,41
2018-11-11T07:06:26.250Z,40
2018-11-11T07:16:29.705Z,39
2018-11-11T07:26:33.159Z,39
2018-11-11T07:36:36.614Z,38
2018-11-11T07:46:40.030Z,38
2018-11-11T07:56:43.465Z,38
2018-11-11T08:06:46.929Z,38
2018-11-11T08:16:50.775Z,38
2018-11-11T08:26:54.405Z,38
2018-11-11T08:36:57.843Z,40
2018-11-11T08:47:01.280Z,40
2018-11-11T08:57:04.736Z,39
2018-11-11T09:07:08.185Z,39
2018-11-11T09:17:11.707Z,39
2018-11-11T09:27:15.237Z,38
2018-11-11T09:37:18.687Z,39
2018-11-11T09:47:22.124Z,38
2018-11-11T09:57:25.583Z,38
2018-11-11T10:07:29.041Z,38
2018-11-11T10:17:32.495Z,38
2018-11-11T10:27:35.960Z,38
2018-11-11T10:37:39.541Z,39
2018-11-11T10:47:43.095Z,39
2018-11-11T10:57:46.537Z,39
2018-11-11T11:07:49.983Z,39
2018-11-11T11:17:53.423Z,38
2018-11-11T11:27:56.879Z,39
2018-11-11T11:38:00.518Z,40
2018-11-11T11:48:04.042Z,39
2018-11-11T11:58:07.916Z,39
2018-11-11T12:08:11.681Z,38
2018-11-11T12:18:15.138Z,38
2018-11-11T12:28:18.617Z,39
2018-11-11T12:38:22.074Z,38
2018-11-11T12:48:25.516Z,38
2018-11-11T12:58:28.931Z,37
2018-11-11T13:08:32.381Z,37
2018-11-11T13:18:35.829Z,36
2018-11-11T13:28:39.300Z,38
2018-11-11T13:38:42.848Z,38
2018-11-11T13:48:46.266Z,37
2018-11-11T13:58:49.699Z,36
2018-11-11T14:08:53.131Z,36
2018-11-11T14:18:57.843Z,36
2018-11-11T14:29:01.859Z,36
2018-11-11T14:39:05.308Z,36
2018-11-11T14:49:09.065Z,36
2018-11-11T14:59:12.734Z,38
2018-11-11T15:09:16.162Z,36
2018-11-11T15:19:19.995Z,37
2018-11-11T15:29:23.592Z,39
2018-11-11T15:39:27.034Z,39
2018-11-11T15:49:30.490Z,39
2018-11-11T15:59:33.951Z,42
2018-11-11T16:09:37.404Z,39
2018-11-11T16:19:41.012Z,38
2018-11-11T16:29:44.608Z,42
2018-11-11T16:39:48.459Z,40
2018-11-11T16:49:52.248Z,40
2018-11-11T16:59:55.710Z,39
2018-11-11T17:09:59.129Z,41
2018-11-11T17:20:02.901Z,40
2018-11-11T17:30:07.868Z,39
2018-11-11T17:40:11.693Z,40
2018-11-11T17:50:15.358Z,39
2018-11-11T18:00:18.827Z,39
2018-11-11T18:10:22.521Z,41
2018-11-11T18:20:26.164Z,40
2018-11-11T18:30:29.592Z,44
2018-11-11T18:40:33.053Z,41
2018-11-11T18:50:36.511Z,43
2018-11-11T19:00:39.981Z,44
2018-11-11T19:10:44.036Z,42
2018-11-11T19:20:47.773Z,41
2018-11-11T19:30:51.252Z,41
2018-11-11T19:40:54.705Z,41
2018-11-11T19:50:58.172Z,46
2018-11-11T20:01:01.629Z,43
2018-11-11T20:11:05.102Z,41
2018-11-11T20:21:08.553Z,39
2018-11-11T20:31:12.020Z,38
2018-11-11T20:41:15.443Z,40
2018-11-11T20:51:18.900Z,39
2018-11-11T21:01:22.368Z,41
2018-11-11T21:11:25.948Z,41
2018-11-11T21:21:29.905Z,40
2018-11-11T21:31:33.639Z,40
2018-11-11T21:41:37.082Z,38
2018-11-11T21:51:40.527Z,40
2018-11-11T22:01:43.971Z,38
2018-11-11T22:11:47.795Z,39
2018-11-11T22:21:51.415Z,39
2018-11-11T22:31:54.868Z,39
2018-11-11T22:41:58.302Z,38
2018-11-11T22:52:01.781Z,38
2018-11-11T23:02:05.255Z,37
2018-11-11T23:12:08.701Z,41
2018-11-11T23:22:12.145Z,38
2018-11-11T23:32:15.610Z,38
2018-11-11T23:42:19.023Z,37
2018-11-11T23:52:22.475Z,40
